Latest Weather Observations for Strathalbyn

IDS60801

Issued at 6:31 am CDT Saturday 21 January 2017 (issued every 30 minutes, with the page automatically refreshed every 10 minutes)

About weather observations | Map of weather stations | Latest weather observations for SA | Other Formats
Station Details ID: 024580 Name: STRATHALBYN RACECOURSE Lat: -35.28 Lon: 138.89 Height: 58.0 m
Data from the previous 72 hours. | See also: Recent months at Strathalbyn
Date/Time
CDT
Temp
°C
App
Temp
°C
Dew
Point
°C
Rel
Hum
%
Delta-T
°C
Wind Press
QNH
hPa
Press
MSL
hPa
Rain since
9am
mm
Dir  Spd
km/h
Gust
km/h
Spd
kts
Gust
kts
21/06:00am 12.5 11.3 10.4 87 1.1 NNE 7 9 4 5 1014.6 1014.4 0.2
21/05:30am 12.7 11.5 10.4 86 1.2 N 7 7 4 4 1014.3 1014.1 0.2
21/05:00am 13.0 13.3 10.9 87 1.1 CALM 0 0 0 0 1014.1 1013.9 0.2
21/04:30am 13.4 13.8 11.3 87 1.1 CALM 0 0 0 0 1013.8 1013.6 0.2
21/04:00am 12.7 12.8 10.2 85 1.3 CALM 0 0 0 0 1013.7 1013.5 0.2
21/03:30am 12.8 11.6 10.2 84 1.3 S 7 9 4 5 1013.5 1013.3 0.2
21/03:00am 12.8 10.8 10.2 84 1.3 S 11 13 6 7 1013.3 1013.1 0.2
21/02:30am 13.0 11.4 10.2 83 1.4 S 9 11 5 6 1013.4 1013.2 0.2
21/02:00am 13.5 11.9 10.3 81 1.7 S 9 11 5 6 1013.4 1013.2 0.2
21/01:30am 14.3 13.4 10.7 79 1.9 SSW 6 7 3 4 1013.5 1013.3 0.2
21/01:00am 14.7 13.3 10.9 78 2.0 SSE 9 11 5 6 1013.4 1013.2 0.2
21/12:30am 14.9 13.5 10.9 77 2.1 S 9 13 5 7 1013.4 1013.2 0.2
21/12:00am 14.4 13.6 11.2 81 1.7 S 6 7 3 4 1013.2 1013.0 0.2
 
Date/Time
CDT
Temp
°C
App
Temp
°C
Dew
Point
°C
Rel
Hum
%
Delta-T
°C
Wind Press
QNH
hPa
Press
MSL
hPa
Rain since
9am
mm
Dir  Spd
km/h
Gust
km/h
Spd
kts
Gust
kts
20/11:30pm 14.2 13.0 10.4 78 2.0 S 7 11 4 6 1012.9 1012.7 0.2
20/11:00pm 14.4 13.0 11.0 80 1.8 SSW 9 11 5 6 1012.6 1012.4 0.2
20/10:30pm 14.1 12.7 10.9 81 1.7 S 9 11 5 6 1012.4 1012.2 0.2
20/10:00pm 13.8 11.6 10.8 82 1.6 S 13 15 7 8 1012.1 1011.9 0.2
20/09:30pm 14.2 11.9 10.6 79 1.9 S 13 15 7 8 1011.7 1011.5 0.2
20/09:00pm 14.9 12.3 10.7 76 2.2 S 15 20 8 11 1011.4 1011.2 0.2
20/08:30pm 15.7 12.3 10.7 72 2.7 S 19 22 10 12 1011.1 1010.9 0.2
20/08:00pm 17.0 13.6 11.3 69 3.1 S 20 26 11 14 1010.5 1010.3 0.2
20/07:30pm 17.5 12.5 10.9 65 3.6 SSW 28 35 15 19 1010.2 1010.0 0.2
20/07:00pm 18.1 13.4 10.5 61 4.1 SSW 26 33 14 18 1010.1 1009.9 0.2
20/06:30pm 18.5 13.8 10.6 60 4.3 SSW 26 35 14 19 1009.9 1009.7 0.2
20/06:00pm 19.1 13.6 10.6 58 4.6 S 30 39 16 21 1009.6 1009.4 0.2
20/05:30pm 19.0 13.6 10.8 59 4.5 SSW 30 37 16 20 1009.7 1009.5 0.2
20/05:00pm 18.9 13.8 10.7 59 4.4 S 28 37 15 20 1009.7 1009.5 0.2
20/04:30pm 19.1 14.1 10.9 59 4.5 S 28 35 15 19 1009.4 1009.2 0.2
20/04:00pm 19.7 14.9 11.7 60 4.4 S 28 37 15 20 1009.1 1008.9 0.2
20/03:30pm 19.4 15.2 11.2 59 4.5 S 24 33 13 18 1008.9 1008.7 0.2
20/03:00pm 19.0 14.7 12.0 64 3.9 SSW 26 32 14 17 1008.8 1008.6 0.2
20/02:30pm 19.0 14.2 11.8 63 4.0 S 28 37 15 20 1008.6 1008.4 0.2
20/02:00pm 19.4 15.0 11.7 61 4.3 S 26 32 14 17 1008.5 1008.3 0.2
20/01:30pm 20.1 16.0 12.8 63 4.1 S 26 37 14 20 1008.3 1008.1 0.2
20/01:00pm 18.8 14.5 11.9 64 3.8 S 26 35 14 19 1008.2 1008.0 0.2
20/12:30pm 18.5 13.3 11.6 64 3.8 SSW 30 37 16 20 1008.0 1007.8 0.2
20/12:00pm 19.4 14.5 13.8 70 3.2 SSW 32 43 17 23 1007.8 1007.6 0.2
20/11:30am 18.1 12.8 12.5 70 3.1 S 32 41 17 22 1007.6 1007.4 0.2
20/11:00am 17.4 11.5 12.5 73 2.7 SSW 35 44 19 24 1007.2 1007.0 0.2
20/10:30am 17.4 11.3 11.9 70 3.0 SSW 35 46 19 25 1006.3 1006.1 0.0
20/10:00am 17.0 10.4 12.5 75 2.5 SSW 39 54 21 29 1005.9 1005.7 0.0
20/09:52am 17.4 11.6 12.7 74 2.6 SSW 35 54 19 29 1005.7 1005.5 0.0
20/09:30am 17.0 11.9 13.7 81 1.9 SSW 33 46 18 25 1005.3 1005.1 0.0
20/09:00am 17.0 12.3 13.1 78 2.2 SSW 30 39 16 21 1004.6 1004.4 25.6
20/08:30am 16.4 12.4 14.1 86 1.3 SSW 28 41 15 22 1004.4 1004.2 25.6
20/08:00am 16.6 12.5 13.7 83 1.6 SSW 28 41 15 22 1003.5 1003.2 25.6
20/07:30am 16.6 13.1 14.6 88 1.2 SSW 26 35 14 19 1002.9 1002.6 25.6
20/07:00am 16.6 11.6 15.1 91 0.9 SSW 35 46 19 25 1002.3 1002.0 25.6
20/06:30am 17.3 13.6 14.9 86 1.4 SW 28 39 15 21 1001.5 1001.3 25.6
20/06:03am 17.8 14.3 15.4 86 1.4 SW 28 48 15 26 1000.9 1000.7 25.6
20/06:00am 18.2 15.5 15.5 84 1.6 SW 24 44 13 24 1000.9 1000.7 25.6
20/05:30am 18.7 17.6 16.3 86 1.4 WSW 17 26 9 14 1000.2 1000.0 25.6
20/05:00am 18.9 16.8 16.3 85 1.6 SW 22 33 12 18 999.5 999.3 25.6
20/04:30am 17.4 17.3 16.1 92 0.8 S 11 13 6 7 998.6 998.4 25.6
20/04:00am 17.5 17.9 16.2 92 0.8 WSW 9 11 5 6 998.2 998.0 25.4
20/03:30am 17.8 19.7 16.7 93 0.7 WSW 2 7 1 4 997.9 997.7 25.4
20/03:00am 17.5 18.4 16.5 94 0.6 WNW 7 11 4 6 998.2 998.0 25.4
20/02:30am 17.3 17.7 16.3 94 0.6 NW 9 11 5 6 998.1 997.9 25.4
20/02:00am 17.1 18.4 16.1 94 0.6 N 4 9 2 5 998.0 997.8 25.4
20/01:52am 17.0 19.0 16.0 94 0.6 CALM 0 0 0 0 998.1 997.9 25.4
20/01:30am 17.1 17.0 16.1 94 0.6 SW 11 19 6 10 1000.1 999.9 23.4
20/01:00am 17.0 14.8 16.0 94 0.6 S 22 33 12 18 999.2 999.0 18.6
20/12:30am 17.8 14.4 16.8 94 0.6 SSW 30 41 16 22 1000.3 1000.1 8.8
20/12:00am 17.8 15.1 16.7 93 0.7 SSW 26 39 14 21 999.7 999.5 5.4
 
Date/Time
CDT
Temp
°C
App
Temp
°C
Dew
Point
°C
Rel
Hum
%
Delta-T
°C
Wind Press
QNH
hPa
Press
MSL
hPa
Rain since
9am
mm
Dir  Spd
km/h
Gust
km/h
Spd
kts
Gust
kts
19/11:30pm 17.9 14.7 16.2 90 1.0 SW 28 39 15 21 1000.0 999.8 1.8
19/11:00pm 19.2 14.4 16.6 85 1.6 SSW 37 52 20 28 999.7 999.5 0.6
19/10:57pm 19.5 15.1 16.7 84 1.7 SSW 35 57 19 31 999.7 999.5 0.6
19/10:51pm 21.0 18.7 16.6 76 2.7 SSW 24 57 13 31 999.6 999.4 0.6
19/10:30pm 25.6 27.0 21.1 76 3.0 SW 15 20 8 11 999.2 999.0 0.6
19/10:00pm 25.9 24.7 20.9 74 3.3 NNW 28 39 15 21 998.6 998.4 0.6
19/09:30pm 25.6 24.4 21.5 78 2.7 NW 30 46 16 25 998.9 998.7 0.6
19/09:00pm 29.0 25.9 16.5 46 7.8 NNW 28 93 15 50 998.6 998.4 0.0
19/08:58pm 32.0 29.2 13.2 31 11.3 N 20 32 11 17 997.4 997.2 0.0
19/08:30pm 33.3 30.1 11.2 26 13.0 NNE 19 24 10 13 995.1 994.9 0.0
19/08:00pm 33.4 30.0 11.3 26 13.0 NE 20 28 11 15 996.1 995.9 0.0
19/07:30pm 34.1 29.0 10.7 24 13.7 NE 28 39 15 21 996.5 996.3 0.0
19/07:00pm 34.4 30.1 10.9 24 13.8 NE 24 35 13 19 997.3 997.1 0.0
19/06:30pm 34.5 29.9 11.0 24 13.9 NE 26 35 14 19 997.5 997.3 0.0
19/06:00pm 35.1 30.6 10.2 22 14.6 NE 24 37 13 20 998.1 997.9 0.0
19/05:30pm 35.3 30.3 9.7 21 14.9 ENE 26 35 14 19 998.5 998.3 0.0
19/05:00pm 34.9 31.0 10.7 23 14.2 NE 22 33 12 18 999.5 999.3 0.0
19/04:30pm 34.2 30.5 9.4 22 14.3 ENE 19 32 10 17 1000.7 1000.5 0.0
19/04:00pm 34.1 30.9 10.0 23 13.9 ENE 17 24 9 13 1001.6 1001.4 0.0
19/03:30pm 33.3 29.6 10.0 24 13.5 NE 20 33 11 18 1002.7 1002.4 0.0
19/03:00pm 32.1 28.2 9.6 25 12.8 ENE 20 30 11 16 1003.6 1003.3 0.0
19/02:30pm 30.0 25.8 8.4 26 12.0 NE 20 32 11 17 1004.8 1004.6 0.0
19/02:00pm 28.5 24.0 8.7 29 10.9 NE 22 30 12 16 1005.2 1005.0 0.0
19/01:30pm 27.7 23.5 8.1 29 10.7 NE 20 30 11 16 1006.0 1005.8 0.0
19/01:00pm 26.4 23.1 7.9 31 9.9 ENE 15 22 8 12 1007.1 1006.9 0.0
19/12:30pm 25.6 22.1 7.2 31 9.7 ENE 15 26 8 14 1007.9 1007.7 0.0
19/12:00pm 24.8 21.0 7.4 33 9.2 ENE 17 26 9 14 1008.4 1008.2 0.0
19/11:30am 24.1 20.3 7.7 35 8.7 NE 17 24 9 13 1008.8 1008.6 0.0
19/11:00am 22.7 19.5 6.9 36 8.2 ENE 13 20 7 11 1009.4 1009.2 0.0
19/10:30am 21.7 17.4 6.8 38 7.6 NE 19 24 10 13 1009.8 1009.6 0.0
19/10:00am 21.0 16.7 6.9 40 7.2 NE 19 24 10 13 1009.9 1009.7 0.0
19/09:30am 19.7 16.0 7.8 46 6.1 NE 17 22 9 12 1010.3 1010.1 0.0
19/09:00am 19.4 15.7 7.8 47 6.0 NE 17 22 9 12 1010.8 1010.6 0.0
19/08:30am 19.1 15.3 7.5 47 5.9 NE 17 24 9 13 1010.9 1010.7 0.0
19/08:00am 17.9 15.2 7.3 50 5.3 NE 11 15 6 8 1011.2 1011.0 0.0
19/07:30am 17.1 16.9 9.0 59 4.2 CALM 0 2 0 1 1011.6 1011.4 0.0
19/07:00am 14.9 14.8 9.5 70 2.8 CALM 0 0 0 0 1011.5 1011.3 0.0
19/06:30am 13.6 13.5 9.5 76 2.1 CALM 0 0 0 0 1011.3 1011.1 0.0
19/06:00am 13.9 13.7 9.1 73 2.4 CALM 0 0 0 0 1011.4 1011.2 0.0
19/05:30am 14.3 14.2 9.3 72 2.6 CALM 0 0 0 0 1011.3 1011.1 0.0
19/05:00am 13.9 13.9 9.7 76 2.2 CALM 0 0 0 0 1011.5 1011.3 0.0
19/04:30am 14.2 14.2 9.8 75 2.3 CALM 0 0 0 0 1011.3 1011.1 0.0
19/04:00am 15.0 14.3 10.0 72 2.6 S 4 7 2 4 1011.5 1011.3 0.0
19/03:30am 15.2 14.1 10.6 74 2.4 SW 7 9 4 5 1011.8 1011.6 0.0
19/03:00am 15.3 14.3 11.1 76 2.2 SW 7 9 4 5 1012.1 1011.9 0.0
19/02:30am 15.7 14.5 11.7 77 2.2 SSW 9 15 5 8 1012.4 1012.2 0.0
19/02:00am 16.0 15.0 12.4 79 2.0 SW 9 13 5 7 1012.8 1012.6 0.0
19/01:30am 16.1 15.2 12.5 79 2.0 SW 9 11 5 6 1013.0 1012.8 0.0
19/01:00am 16.1 15.2 12.5 79 2.0 WSW 9 13 5 7 1013.4 1013.2 0.0
19/12:30am 16.0 14.7 12.4 79 2.0 WSW 11 15 6 8 1013.7 1013.5 0.0
19/12:00am 15.8 14.7 12.0 78 2.1 WSW 9 11 5 6 1014.1 1013.9 0.0
 
Date/Time
CDT
Temp
°C
App
Temp
°C
Dew
Point
°C
Rel
Hum
%
Delta-T
°C
Wind Press
QNH
hPa
Press
MSL
hPa
Rain since
9am
mm
Dir  Spd
km/h
Gust
km/h
Spd
kts
Gust
kts
18/11:30pm 16.0 14.5 11.8 76 2.3 SW 11 13 6 7 1014.4 1014.2 0.0
18/11:00pm 16.0 14.5 11.8 76 2.3 SW 11 15 6 8 1014.7 1014.5 0.0
18/10:30pm 16.3 14.7 11.7 74 2.5 SSW 11 13 6 7 1014.9 1014.7 0.0
18/10:00pm 16.7 14.0 11.6 72 2.8 S 17 20 9 11 1015.0 1014.8 0.0
18/09:30pm 17.1 14.3 11.4 69 3.1 S 17 22 9 12 1014.9 1014.7 0.0
18/09:00pm 17.6 14.2 11.4 67 3.4 S 20 26 11 14 1014.9 1014.7 0.0
18/08:30pm 17.7 13.9 11.0 65 3.6 S 22 30 12 16 1015.0 1014.8 0.0
18/08:00pm 18.0 14.6 11.1 64 3.7 S 20 28 11 15 1014.9 1014.7 0.0
18/07:30pm 18.4 14.6 11.0 62 4.0 SSE 22 28 12 15 1014.4 1014.2 0.0
18/07:00pm 18.7 14.9 11.0 61 4.2 SSE 22 30 12 16 1014.2 1014.0 0.0
18/06:30pm 19.4 15.8 10.7 57 4.7 SSE 20 28 11 15 1014.2 1014.0 0.0
18/06:00pm 19.9 16.5 11.1 57 4.8 SSE 20 30 11 16 1014.2 1014.0 0.0
18/05:30pm 21.1 17.9 11.4 54 5.4 SSE 19 28 10 15 1014.5 1014.3 0.0
18/05:00pm 19.9 15.5 10.3 54 5.2 S 24 33 13 18 1014.7 1014.5 0.0
18/04:30pm 21.3 17.0 9.5 47 6.3 SSE 22 32 12 17 1014.9 1014.7 0.0
18/04:00pm 20.7 16.7 9.0 47 6.2 SSE 20 28 11 15 1015.1 1014.9 0.0
18/03:30pm 22.0 18.0 9.2 44 6.9 SSE 20 43 11 23 1014.9 1014.7 0.0
18/03:00pm 21.2 17.7 10.1 49 6.0 SSE 19 30 10 16 1015.3 1015.1 0.0
18/02:30pm 21.6 17.3 10.7 50 6.0 SSE 24 35 13 19 1015.5 1015.3 0.0
18/02:00pm 21.0 16.6 10.5 51 5.7 SSE 24 37 13 20 1015.8 1015.6 0.0
18/01:30pm 20.6 17.0 10.7 53 5.4 SSE 20 30 11 16 1016.2 1016.0 0.0
18/01:00pm 20.5 17.1 10.6 53 5.4 SE 19 28 10 15 1016.0 1015.8 0.0
18/12:30pm 20.4 17.2 11.3 56 5.0 SE 19 26 10 14 1016.3 1016.1 0.0
18/12:00pm 19.7 16.4 11.7 60 4.4 SE 20 26 11 14 1016.4 1016.2 0.0
18/11:30am 19.7 17.0 11.7 60 4.4 SE 17 26 9 14 1016.4 1016.2 0.0
18/11:00am 19.6 16.8 11.4 59 4.5 SE 17 24 9 13 1017.0 1016.8 0.0
18/10:30am 19.0 15.5 10.8 59 4.4 SE 20 30 11 16 1016.3 1016.1 0.0
18/10:00am 18.7 15.2 10.8 60 4.3 SE 20 28 11 15 1017.0 1016.8 0.0
18/09:30am 18.3 14.8 10.9 62 4.0 SE 20 30 11 16 1017.3 1017.1 0.0
18/09:00am 17.7 13.7 10.6 63 3.8 SE 22 32 12 17 1016.8 1016.6 0.0
18/08:30am 17.5 14.0 10.9 65 3.6 SSE 20 30 11 16 1016.5 1016.3 0.0
18/08:00am 16.8 13.5 11.7 72 2.8 SSE 20 30 11 16 1016.4 1016.2 0.0
18/07:30am 16.4 12.7 11.6 73 2.6 S 22 32 12 17 1016.2 1016.0 0.0
18/07:00am 15.8 11.1 12.0 78 2.1 S 28 33 15 18 1015.4 1015.2 0.0

Other Formats:

Comma delimited format used in spreadsheet applications
http://www.bom.gov.au/fwo/IDS60801/IDS60801.94814.axf

JavaScript Object Notation format (JSON) in row-major order
http://www.bom.gov.au/fwo/IDS60801/IDS60801.94814.json